Weather at Baltimore/Washington International Thurgood Marshall Airport

Public forecast

Using degrees Fahrenheit for public forecast. Weather courtesy of forecast.io.

Current aviation weather report (METAR) for Baltimore/Washington International Thurgood Marshall Airport

Retrieved 2021/07/27 06:54 UTC (45 minutes ago):

KBWI 270654Z 00000KT 10SM CLR 23/21 A2994 RMK AO2 SLP136 T02280206

Aviation forecast (TAF) for Baltimore/Washington International Thurgood Marshall Airport

Retrieved 2021/07/27 06:42 UTC (57 minutes ago):

TAF KBWI 270540Z 2706/2812 VRB03KT P6SM SCT120 FM271600 31004KT P6SM FEW250 FM272000 VRB03KT P6SM FEW070 FEW250 FM280100 00000KT P6SM FEW250